sensor_id;sensor_type;location;lat;lon;timestamp;P1;durP1;ratioP1;P2;durP2;ratioP2
58366;SDS011;57745;42.524;12.052;2022-08-19T00:01:49;9.55;;;3.50;;
58366;SDS011;57745;42.524;12.052;2022-08-19T00:04:17;8.15;;;3.00;;
58366;SDS011;57745;42.524;12.052;2022-08-19T00:06:44;11.68;;;3.63;;
58366;SDS011;57745;42.524;12.052;2022-08-19T00:09:12;9.85;;;3.20;;
58366;SDS011;57745;42.524;12.052;2022-08-19T00:11:39;12.88;;;3.85;;
58366;SDS011;57745;42.524;12.052;2022-08-19T00:14:06;10.82;;;3.30;;
58366;SDS011;57745;42.524;12.052;2022-08-19T00:16:34;9.02;;;3.00;;
58366;SDS011;57745;42.524;12.052;2022-08-19T00:19:01;8.57;;;3.67;;
58366;SDS011;57745;42.524;12.052;2022-08-19T00:21:28;11.82;;;3.28;;
58366;SDS011;57745;42.524;12.052;2022-08-19T00:23:54;9.02;;;3.25;;
58366;SDS011;57745;42.524;12.052;2022-08-19T00:26:21;7.78;;;3.20;;
58366;SDS011;57745;42.524;12.052;2022-08-19T00:28:47;7.20;;;3.28;;
58366;SDS011;57745;42.524;12.052;2022-08-19T00:31:12;10.93;;;3.88;;
58366;SDS011;57745;42.524;12.052;2022-08-19T00:33:38;9.50;;;3.47;;
58366;SDS011;57745;42.524;12.052;2022-08-19T00:36:04;8.20;;;3.67;;
58366;SDS011;57745;42.524;12.052;2022-08-19T00:38:32;9.30;;;3.20;;
58366;SDS011;57745;42.524;12.052;2022-08-19T00:40:58;12.40;;;3.45;;
58366;SDS011;57745;42.524;12.052;2022-08-19T00:43:24;11.90;;;3.90;;
58366;SDS011;57745;42.524;12.052;2022-08-19T00:45:51;6.78;;;3.08;;
58366;SDS011;57745;42.524;12.052;2022-08-19T00:48:17;9.88;;;4.07;;
58366;SDS011;57745;42.524;12.052;2022-08-19T00:50:44;9.50;;;3.22;;
58366;SDS011;57745;42.524;12.052;2022-08-19T00:53:10;7.65;;;3.15;;
58366;SDS011;57745;42.524;12.052;2022-08-19T00:55:40;8.82;;;3.33;;
58366;SDS011;57745;42.524;12.052;2022-08-19T00:58:08;7.50;;;3.08;;
58366;SDS011;57745;42.524;12.052;2022-08-19T01:00:37;8.80;;;3.47;;
58366;SDS011;57745;42.524;12.052;2022-08-19T01:03:04;9.30;;;3.33;;
58366;SDS011;57745;42.524;12.052;2022-08-19T01:08:02;9.13;;;3.33;;
58366;SDS011;57745;42.524;12.052;2022-08-19T01:10:31;9.82;;;3.30;;
58366;SDS011;57745;42.524;12.052;2022-08-19T01:13:01;7.75;;;3.10;;
58366;SDS011;57745;42.524;12.052;2022-08-19T01:15:30;7.78;;;3.00;;
58366;SDS011;57745;42.524;12.052;2022-08-19T01:18:04;6.95;;;2.97;;
58366;SDS011;57745;42.524;12.052;2022-08-19T01:20:32;9.25;;;2.88;;
58366;SDS011;57745;42.524;12.052;2022-08-19T01:22:59;10.18;;;3.15;;
58366;SDS011;57745;42.524;12.052;2022-08-19T01:25:34;9.55;;;2.72;;
58366;SDS011;57745;42.524;12.052;2022-08-19T01:28:06;9.45;;;3.08;;
58366;SDS011;57745;42.524;12.052;2022-08-19T01:30:34;5.65;;;2.72;;
58366;SDS011;57745;42.524;12.052;2022-08-19T01:33:01;8.93;;;3.28;;
58366;SDS011;57745;42.524;12.052;2022-08-19T01:35:30;8.80;;;3.03;;
58366;SDS011;57745;42.524;12.052;2022-08-19T01:38:01;5.68;;;2.60;;
58366;SDS011;57745;42.524;12.052;2022-08-19T01:40:31;11.98;;;4.07;;
58366;SDS011;57745;42.524;12.052;2022-08-19T01:42:58;8.82;;;2.55;;
58366;SDS011;57745;42.524;12.052;2022-08-19T01:45:25;9.30;;;3.35;;
58366;SDS011;57745;42.524;12.052;2022-08-19T01:47:53;9.13;;;3.25;;
58366;SDS011;57745;42.524;12.052;2022-08-19T01:50:20;7.32;;;2.88;;
58366;SDS011;57745;42.524;12.052;2022-08-19T01:52:46;8.00;;;2.90;;
58366;SDS011;57745;42.524;12.052;2022-08-19T01:55:13;9.13;;;2.97;;
58366;SDS011;57745;42.524;12.052;2022-08-19T01:57:42;7.22;;;3.15;;
58366;SDS011;57745;42.524;12.052;2022-08-19T02:00:11;7.40;;;3.38;;
58366;SDS011;57745;42.524;12.052;2022-08-19T02:02:40;10.25;;;3.10;;
58366;SDS011;57745;42.524;12.052;2022-08-19T02:05:06;7.78;;;2.80;;
58366;SDS011;57745;42.524;12.052;2022-08-19T02:07:33;6.60;;;2.95;;
58366;SDS011;57745;42.524;12.052;2022-08-19T02:10:04;6.55;;;2.47;;
58366;SDS011;57745;42.524;12.052;2022-08-19T02:12:30;9.40;;;2.65;;
58366;SDS011;57745;42.524;12.052;2022-08-19T02:14:56;8.57;;;3.00;;
58366;SDS011;57745;42.524;12.052;2022-08-19T02:17:21;9.15;;;2.97;;
58366;SDS011;57745;42.524;12.052;2022-08-19T02:19:48;6.15;;;2.42;;
58366;SDS011;57745;42.524;12.052;2022-08-19T02:22:14;6.82;;;2.67;;
58366;SDS011;57745;42.524;12.052;2022-08-19T02:24:39;5.53;;;2.40;;
58366;SDS011;57745;42.524;12.052;2022-08-19T02:27:05;6.57;;;2.15;;
58366;SDS011;57745;42.524;12.052;2022-08-19T02:29:31;6.18;;;2.28;;
58366;SDS011;57745;42.524;12.052;2022-08-19T02:31:56;6.72;;;2.20;;
58366;SDS011;57745;42.524;12.052;2022-08-19T02:34:22;5.32;;;2.30;;
58366;SDS011;57745;42.524;12.052;2022-08-19T02:36:49;10.20;;;2.72;;
58366;SDS011;57745;42.524;12.052;2022-08-19T02:39:15;7.10;;;2.83;;
58366;SDS011;57745;42.524;12.052;2022-08-19T02:41:40;8.75;;;2.65;;
58366;SDS011;57745;42.524;12.052;2022-08-19T02:44:06;8.25;;;3.08;;
58366;SDS011;57745;42.524;12.052;2022-08-19T02:46:32;6.18;;;2.75;;
58366;SDS011;57745;42.524;12.052;2022-08-19T02:49:03;6.38;;;2.65;;
58366;SDS011;57745;42.524;12.052;2022-08-19T02:51:40;7.50;;;2.17;;
58366;SDS011;57745;42.524;12.052;2022-08-19T02:54:13;8.00;;;2.78;;
58366;SDS011;57745;42.524;12.052;2022-08-19T02:56:40;7.53;;;2.42;;
58366;SDS011;57745;42.524;12.052;2022-08-19T02:59:07;7.50;;;2.35;;
58366;SDS011;57745;42.524;12.052;2022-08-19T03:01:34;6.57;;;2.80;;
58366;SDS011;57745;42.524;12.052;2022-08-19T03:04:01;6.18;;;2.50;;
58366;SDS011;57745;42.524;12.052;2022-08-19T03:06:29;7.90;;;2.72;;
58366;SDS011;57745;42.524;12.052;2022-08-19T03:08:55;6.85;;;3.00;;
58366;SDS011;57745;42.524;12.052;2022-08-19T03:11:22;5.00;;;2.50;;
58366;SDS011;57745;42.524;12.052;2022-08-19T03:13:52;5.40;;;2.00;;
58366;SDS011;57745;42.524;12.052;2022-08-19T03:16:19;7.03;;;2.30;;
58366;SDS011;57745;42.524;12.052;2022-08-19T03:18:46;6.00;;;2.25;;
58366;SDS011;57745;42.524;12.052;2022-08-19T03:21:19;7.68;;;2.80;;
58366;SDS011;57745;42.524;12.052;2022-08-19T03:23:54;6.20;;;2.20;;
58366;SDS011;57745;42.524;12.052;2022-08-19T03:26:21;5.30;;;2.22;;
58366;SDS011;57745;42.524;12.052;2022-08-19T03:28:46;6.03;;;2.33;;
58366;SDS011;57745;42.524;12.052;2022-08-19T03:31:15;8.82;;;2.17;;
58366;SDS011;57745;42.524;12.052;2022-08-19T03:33:43;6.32;;;2.60;;
58366;SDS011;57745;42.524;12.052;2022-08-19T03:36:13;5.93;;;2.13;;
58366;SDS011;57745;42.524;12.052;2022-08-19T03:38:51;5.43;;;2.53;;
58366;SDS011;57745;42.524;12.052;2022-08-19T03:41:23;6.00;;;2.33;;
58366;SDS011;57745;42.524;12.052;2022-08-19T03:43:51;6.25;;;2.22;;
58366;SDS011;57745;42.524;12.052;2022-08-19T03:46:19;7.65;;;2.50;;
58366;SDS011;57745;42.524;12.052;2022-08-19T03:48:47;4.43;;;2.05;;
58366;SDS011;57745;42.524;12.052;2022-08-19T03:51:18;5.38;;;2.30;;
58366;SDS011;57745;42.524;12.052;2022-08-19T03:53:46;4.88;;;2.20;;
58366;SDS011;57745;42.524;12.052;2022-08-19T03:56:12;7.13;;;2.28;;
58366;SDS011;57745;42.524;12.052;2022-08-19T03:58:39;6.55;;;2.45;;
58366;SDS011;57745;42.524;12.052;2022-08-19T04:01:09;5.18;;;2.08;;
58366;SDS011;57745;42.524;12.052;2022-08-19T04:03:39;6.43;;;2.25;;
58366;SDS011;57745;42.524;12.052;2022-08-19T04:06:21;4.68;;;1.80;;
58366;SDS011;57745;42.524;12.052;2022-08-19T04:08:55;5.30;;;2.50;;
58366;SDS011;57745;42.524;12.052;2022-08-19T04:11:26;8.00;;;2.47;;
58366;SDS011;57745;42.524;12.052;2022-08-19T04:13:58;5.28;;;2.17;;
58366;SDS011;57745;42.524;12.052;2022-08-19T04:16:25;7.80;;;2.15;;
58366;SDS011;57745;42.524;12.052;2022-08-19T04:18:53;6.25;;;2.22;;
58366;SDS011;57745;42.524;12.052;2022-08-19T04:21:21;5.70;;;2.08;;
58366;SDS011;57745;42.524;12.052;2022-08-19T04:23:51;3.63;;;1.50;;
58366;SDS011;57745;42.524;12.052;2022-08-19T04:26:18;5.10;;;1.80;;
58366;SDS011;57745;42.524;12.052;2022-08-19T04:28:46;4.10;;;1.95;;
58366;SDS011;57745;42.524;12.052;2022-08-19T04:31:13;5.13;;;1.95;;
58366;SDS011;57745;42.524;12.052;2022-08-19T04:33:53;6.32;;;2.08;;
58366;SDS011;57745;42.524;12.052;2022-08-19T04:36:21;4.18;;;1.65;;
58366;SDS011;57745;42.524;12.052;2022-08-19T04:38:49;4.85;;;2.10;;
58366;SDS011;57745;42.524;12.052;2022-08-19T04:41:18;5.80;;;1.83;;
58366;SDS011;57745;42.524;12.052;2022-08-19T04:44:02;5.72;;;2.55;;
58366;SDS011;57745;42.524;12.052;2022-08-19T04:46:28;5.70;;;1.85;;
58366;SDS011;57745;42.524;12.052;2022-08-19T04:48:56;4.78;;;2.00;;
58366;SDS011;57745;42.524;12.052;2022-08-19T04:51:22;6.05;;;1.90;;
58366;SDS011;57745;42.524;12.052;2022-08-19T04:53:48;8.38;;;1.80;;
58366;SDS011;57745;42.524;12.052;2022-08-19T04:56:14;5.78;;;1.98;;
58366;SDS011;57745;42.524;12.052;2022-08-19T04:58:42;6.05;;;2.42;;
58366;SDS011;57745;42.524;12.052;2022-08-19T05:01:12;6.25;;;1.92;;
58366;SDS011;57745;42.524;12.052;2022-08-19T05:03:39;7.10;;;2.53;;
58366;SDS011;57745;42.524;12.052;2022-08-19T05:06:08;5.82;;;2.00;;
58366;SDS011;57745;42.524;12.052;2022-08-19T05:08:36;3.95;;;1.80;;
58366;SDS011;57745;42.524;12.052;2022-08-19T05:11:13;4.72;;;1.80;;
58366;SDS011;57745;42.524;12.052;2022-08-19T05:13:41;4.72;;;1.73;;
58366;SDS011;57745;42.524;12.052;2022-08-19T05:16:08;6.65;;;1.80;;
58366;SDS011;57745;42.524;12.052;2022-08-19T05:18:35;6.13;;;1.98;;
58366;SDS011;57745;42.524;12.052;2022-08-19T05:21:19;4.47;;;2.13;;
58366;SDS011;57745;42.524;12.052;2022-08-19T05:24:04;4.22;;;1.95;;
58366;SDS011;57745;42.524;12.052;2022-08-19T05:26:34;5.68;;;1.95;;
58366;SDS011;57745;42.524;12.052;2022-08-19T05:29:00;6.82;;;1.90;;
58366;SDS011;57745;42.524;12.052;2022-08-19T05:31:26;6.72;;;1.90;;
58366;SDS011;57745;42.524;12.052;2022-08-19T05:33:52;4.90;;;1.70;;
58366;SDS011;57745;42.524;12.052;2022-08-19T05:36:18;6.80;;;1.85;;
58366;SDS011;57745;42.524;12.052;2022-08-19T05:38:45;7.28;;;1.92;;
58366;SDS011;57745;42.524;12.052;2022-08-19T05:41:13;5.25;;;1.75;;
58366;SDS011;57745;42.524;12.052;2022-08-19T05:43:39;4.60;;;1.90;;
58366;SDS011;57745;42.524;12.052;2022-08-19T05:46:05;5.70;;;1.70;;
58366;SDS011;57745;42.524;12.052;2022-08-19T05:48:32;6.85;;;2.03;;
58366;SDS011;57745;42.524;12.052;2022-08-19T05:51:02;3.25;;;1.40;;
58366;SDS011;57745;42.524;12.052;2022-08-19T05:53:31;6.28;;;2.25;;
58366;SDS011;57745;42.524;12.052;2022-08-19T05:55:57;3.78;;;1.88;;
58366;SDS011;57745;42.524;12.052;2022-08-19T05:58:23;6.95;;;1.95;;
58366;SDS011;57745;42.524;12.052;2022-08-19T06:00:49;3.90;;;1.40;;
58366;SDS011;57745;42.524;12.052;2022-08-19T06:03:15;5.03;;;1.90;;
58366;SDS011;57745;42.524;12.052;2022-08-19T06:05:41;5.88;;;1.90;;
58366;SDS011;57745;42.524;12.052;2022-08-19T06:08:07;6.70;;;1.88;;
58366;SDS011;57745;42.524;12.052;2022-08-19T06:10:32;4.50;;;1.63;;
58366;SDS011;57745;42.524;12.052;2022-08-19T06:12:58;5.35;;;1.60;;
58366;SDS011;57745;42.524;12.052;2022-08-19T06:15:23;3.85;;;1.73;;
58366;SDS011;57745;42.524;12.052;2022-08-19T06:17:52;5.25;;;1.77;;
58366;SDS011;57745;42.524;12.052;2022-08-19T06:20:19;4.57;;;2.03;;
58366;SDS011;57745;42.524;12.052;2022-08-19T06:23:04;3.65;;;1.88;;
58366;SDS011;57745;42.524;12.052;2022-08-19T06:26:23;4.25;;;1.67;;
58366;SDS011;57745;42.524;12.052;2022-08-19T06:29:07;5.63;;;2.10;;
58366;SDS011;57745;42.524;12.052;2022-08-19T06:31:35;5.35;;;1.42;;
58366;SDS011;57745;42.524;12.052;2022-08-19T06:34:20;6.60;;;1.83;;
58366;SDS011;57745;42.524;12.052;2022-08-19T06:37:06;6.32;;;1.95;;
58366;SDS011;57745;42.524;12.052;2022-08-19T06:39:35;5.25;;;2.25;;
58366;SDS011;57745;42.524;12.052;2022-08-19T06:42:03;3.67;;;1.60;;
58366;SDS011;57745;42.524;12.052;2022-08-19T06:44:33;5.20;;;1.70;;
58366;SDS011;57745;42.524;12.052;2022-08-19T06:47:05;5.10;;;1.90;;
58366;SDS011;57745;42.524;12.052;2022-08-19T06:49:32;4.75;;;1.98;;
58366;SDS011;57745;42.524;12.052;2022-08-19T06:51:58;6.30;;;1.90;;
58366;SDS011;57745;42.524;12.052;2022-08-19T06:54:25;5.70;;;1.88;;
58366;SDS011;57745;42.524;12.052;2022-08-19T06:56:53;4.32;;;2.00;;
58366;SDS011;57745;42.524;12.052;2022-08-19T06:59:20;4.90;;;2.08;;
58366;SDS011;57745;42.524;12.052;2022-08-19T07:01:49;8.43;;;2.85;;
58366;SDS011;57745;42.524;12.052;2022-08-19T07:04:17;5.53;;;2.20;;
58366;SDS011;57745;42.524;12.052;2022-08-19T07:06:44;4.63;;;1.80;;
58366;SDS011;57745;42.524;12.052;2022-08-19T07:09:11;5.20;;;1.92;;
58366;SDS011;57745;42.524;12.052;2022-08-19T07:11:41;6.90;;;2.30;;
58366;SDS011;57745;42.524;12.052;2022-08-19T07:14:10;6.53;;;2.17;;
58366;SDS011;57745;42.524;12.052;2022-08-19T07:16:35;5.72;;;2.03;;
58366;SDS011;57745;42.524;12.052;2022-08-19T07:19:01;7.55;;;2.10;;
58366;SDS011;57745;42.524;12.052;2022-08-19T07:21:27;4.60;;;1.92;;
58366;SDS011;57745;42.524;12.052;2022-08-19T07:23:54;4.38;;;1.83;;
58366;SDS011;57745;42.524;12.052;2022-08-19T07:26:22;5.00;;;2.50;;
58366;SDS011;57745;42.524;12.052;2022-08-19T07:28:50;6.10;;;1.95;;
58366;SDS011;57745;42.524;12.052;2022-08-19T07:31:17;3.60;;;1.80;;
58366;SDS011;57745;42.524;12.052;2022-08-19T07:33:47;4.95;;;2.22;;
58366;SDS011;57745;42.524;12.052;2022-08-19T07:36:15;7.28;;;2.25;;
58366;SDS011;57745;42.524;12.052;2022-08-19T07:38:43;5.00;;;2.45;;
58366;SDS011;57745;42.524;12.052;2022-08-19T07:41:11;6.20;;;2.33;;
58366;SDS011;57745;42.524;12.052;2022-08-19T07:43:38;6.25;;;2.25;;
58366;SDS011;57745;42.524;12.052;2022-08-19T07:46:04;4.00;;;2.22;;
58366;SDS011;57745;42.524;12.052;2022-08-19T07:48:31;5.53;;;2.00;;
58366;SDS011;57745;42.524;12.052;2022-08-19T07:50:59;6.63;;;2.28;;
58366;SDS011;57745;42.524;12.052;2022-08-19T07:53:28;5.47;;;2.42;;
58366;SDS011;57745;42.524;12.052;2022-08-19T07:55:54;5.40;;;2.17;;
58366;SDS011;57745;42.524;12.052;2022-08-19T07:58:25;4.60;;;2.03;;
58366;SDS011;57745;42.524;12.052;2022-08-19T08:00:50;3.92;;;2.35;;
58366;SDS011;57745;42.524;12.052;2022-08-19T08:03:18;5.13;;;2.30;;
58366;SDS011;57745;42.524;12.052;2022-08-19T08:05:45;5.90;;;2.15;;
58366;SDS011;57745;42.524;12.052;2022-08-19T08:08:29;3.20;;;1.90;;
58366;SDS011;57745;42.524;12.052;2022-08-19T08:11:10;4.45;;;2.10;;
58366;SDS011;57745;42.524;12.052;2022-08-19T08:13:36;5.53;;;2.13;;
58366;SDS011;57745;42.524;12.052;2022-08-19T08:16:02;5.88;;;2.15;;
58366;SDS011;57745;42.524;12.052;2022-08-19T08:18:28;7.63;;;2.75;;
58366;SDS011;57745;42.524;12.052;2022-08-19T08:20:57;3.17;;;1.73;;
58366;SDS011;57745;42.524;12.052;2022-08-19T08:23:23;6.97;;;2.10;;
58366;SDS011;57745;42.524;12.052;2022-08-19T08:25:55;5.32;;;2.30;;
58366;SDS011;57745;42.524;12.052;2022-08-19T08:28:22;4.35;;;2.15;;
58366;SDS011;57745;42.524;12.052;2022-08-19T08:30:48;4.35;;;2.00;;
58366;SDS011;57745;42.524;12.052;2022-08-19T08:33:21;4.30;;;2.70;;
58366;SDS011;57745;42.524;12.052;2022-08-19T08:35:49;6.10;;;2.60;;
58366;SDS011;57745;42.524;12.052;2022-08-19T08:38:14;5.53;;;2.58;;
58366;SDS011;57745;42.524;12.052;2022-08-19T08:40:48;4.10;;;2.35;;
58366;SDS011;57745;42.524;12.052;2022-08-19T08:43:33;5.72;;;2.50;;
58366;SDS011;57745;42.524;12.052;2022-08-19T08:46:06;6.15;;;2.20;;
58366;SDS011;57745;42.524;12.052;2022-08-19T08:51:00;4.43;;;2.30;;
58366;SDS011;57745;42.524;12.052;2022-08-19T08:53:29;4.00;;;2.25;;
58366;SDS011;57745;42.524;12.052;2022-08-19T08:55:57;3.40;;;2.25;;
58366;SDS011;57745;42.524;12.052;2022-08-19T08:58:27;4.47;;;2.13;;
58366;SDS011;57745;42.524;12.052;2022-08-19T09:00:57;3.60;;;2.08;;
58366;SDS011;57745;42.524;12.052;2022-08-19T09:03:25;3.63;;;2.33;;
58366;SDS011;57745;42.524;12.052;2022-08-19T09:06:12;4.80;;;1.80;;
58366;SDS011;57745;42.524;12.052;2022-08-19T09:09:02;4.70;;;1.90;;
58366;SDS011;57745;42.524;12.052;2022-08-19T09:16:56;4.10;;;2.22;;
58366;SDS011;57745;42.524;12.052;2022-08-19T09:19:23;4.53;;;1.67;;
58366;SDS011;57745;42.524;12.052;2022-08-19T09:21:48;4.03;;;1.55;;
58366;SDS011;57745;42.524;12.052;2022-08-19T09:24:15;5.53;;;1.85;;
58366;SDS011;57745;42.524;12.052;2022-08-19T09:26:40;4.22;;;2.03;;
58366;SDS011;57745;42.524;12.052;2022-08-19T09:29:08;1.92;;;1.45;;
58366;SDS011;57745;42.524;12.052;2022-08-19T09:31:34;4.05;;;1.42;;
58366;SDS011;57745;42.524;12.052;2022-08-19T09:34:00;3.08;;;1.88;;
58366;SDS011;57745;42.524;12.052;2022-08-19T09:36:29;2.97;;;1.58;;
58366;SDS011;57745;42.524;12.052;2022-08-19T09:39:01;4.45;;;1.80;;
58366;SDS011;57745;42.524;12.052;2022-08-19T09:41:28;4.22;;;1.60;;
58366;SDS011;57745;42.524;12.052;2022-08-19T09:43:55;4.45;;;1.67;;
58366;SDS011;57745;42.524;12.052;2022-08-19T09:46:22;2.80;;;1.50;;
58366;SDS011;57745;42.524;12.052;2022-08-19T09:48:51;7.47;;;1.70;;
58366;SDS011;57745;42.524;12.052;2022-08-19T09:51:18;5.18;;;1.90;;
58366;SDS011;57745;42.524;12.052;2022-08-19T09:53:47;4.07;;;1.67;;
58366;SDS011;57745;42.524;12.052;2022-08-19T09:56:15;5.32;;;1.63;;
58366;SDS011;57745;42.524;12.052;2022-08-19T09:58:42;4.45;;;1.85;;
58366;SDS011;57745;42.524;12.052;2022-08-19T10:01:07;4.45;;;1.70;;
58366;SDS011;57745;42.524;12.052;2022-08-19T10:03:34;4.55;;;1.70;;
58366;SDS011;57745;42.524;12.052;2022-08-19T10:06:03;3.33;;;1.42;;
58366;SDS011;57745;42.524;12.052;2022-08-19T10:08:31;3.35;;;1.90;;
58366;SDS011;57745;42.524;12.052;2022-08-19T10:10:59;2.67;;;1.40;;
58366;SDS011;57745;42.524;12.052;2022-08-19T10:13:26;3.45;;;1.60;;
58366;SDS011;57745;42.524;12.052;2022-08-19T10:15:55;3.85;;;1.48;;
58366;SDS011;57745;42.524;12.052;2022-08-19T10:21:01;3.75;;;1.50;;
58366;SDS011;57745;42.524;12.052;2022-08-19T10:23:45;1.98;;;1.13;;
58366;SDS011;57745;42.524;12.052;2022-08-19T10:26:14;3.83;;;1.67;;
58366;SDS011;57745;42.524;12.052;2022-08-19T10:28:41;2.55;;;1.38;;
58366;SDS011;57745;42.524;12.052;2022-08-19T10:31:09;3.05;;;1.60;;
58366;SDS011;57745;42.524;12.052;2022-08-19T10:33:37;8.50;;;5.90;;
58366;SDS011;57745;42.524;12.052;2022-08-19T10:36:04;5.85;;;3.15;;
58366;SDS011;57745;42.524;12.052;2022-08-19T10:38:31;3.72;;;2.58;;
58366;SDS011;57745;42.524;12.052;2022-08-19T10:41:05;5.57;;;3.30;;
58366;SDS011;57745;42.524;12.052;2022-08-19T10:43:32;3.33;;;2.67;;
58366;SDS011;57745;42.524;12.052;2022-08-19T10:46:02;3.72;;;2.88;;
58366;SDS011;57745;42.524;12.052;2022-08-19T10:48:28;4.88;;;3.30;;
58366;SDS011;57745;42.524;12.052;2022-08-19T10:50:54;5.07;;;3.55;;
58366;SDS011;57745;42.524;12.052;2022-08-19T10:53:40;5.30;;;3.08;;
58366;SDS011;57745;42.524;12.052;2022-08-19T10:56:06;4.95;;;3.60;;
58366;SDS011;57745;42.524;12.052;2022-08-19T10:58:50;3.03;;;2.47;;
58366;SDS011;57745;42.524;12.052;2022-08-19T11:01:15;5.70;;;3.20;;
58366;SDS011;57745;42.524;12.052;2022-08-19T11:03:41;4.95;;;2.92;;
58366;SDS011;57745;42.524;12.052;2022-08-19T11:06:07;5.40;;;3.15;;
58366;SDS011;57745;42.524;12.052;2022-08-19T11:08:34;3.30;;;2.42;;
58366;SDS011;57745;42.524;12.052;2022-08-19T11:11:03;3.80;;;2.60;;
58366;SDS011;57745;42.524;12.052;2022-08-19T11:13:31;3.67;;;2.13;;
58366;SDS011;57745;42.524;12.052;2022-08-19T11:16:00;3.30;;;2.30;;
58366;SDS011;57745;42.524;12.052;2022-08-19T11:21:06;2.92;;;2.40;;
58366;SDS011;57745;42.524;12.052;2022-08-19T11:23:34;3.80;;;2.50;;
58366;SDS011;57745;42.524;12.052;2022-08-19T11:25:59;3.95;;;2.80;;
58366;SDS011;57745;42.524;12.052;2022-08-19T11:28:26;2.83;;;2.10;;
58366;SDS011;57745;42.524;12.052;2022-08-19T11:30:51;3.70;;;2.45;;
58366;SDS011;57745;42.524;12.052;2022-08-19T11:33:17;3.30;;;1.90;;
58366;SDS011;57745;42.524;12.052;2022-08-19T11:35:42;2.92;;;2.30;;
58366;SDS011;57745;42.524;12.052;2022-08-19T11:38:08;2.90;;;2.17;;
58366;SDS011;57745;42.524;12.052;2022-08-19T11:40:33;4.40;;;2.20;;
58366;SDS011;57745;42.524;12.052;2022-08-19T11:42:59;4.75;;;2.20;;
58366;SDS011;57745;42.524;12.052;2022-08-19T11:45:25;4.25;;;1.70;;
58366;SDS011;57745;42.524;12.052;2022-08-19T11:47:52;4.90;;;1.90;;
58366;SDS011;57745;42.524;12.052;2022-08-19T11:50:18;2.75;;;2.20;;
58366;SDS011;57745;42.524;12.052;2022-08-19T11:52:45;4.65;;;1.90;;
58366;SDS011;57745;42.524;12.052;2022-08-19T11:55:12;3.53;;;2.00;;
58366;SDS011;57745;42.524;12.052;2022-08-19T11:57:38;3.15;;;2.10;;
58366;SDS011;57745;42.524;12.052;2022-08-19T12:00:09;2.92;;;1.95;;
58366;SDS011;57745;42.524;12.052;2022-08-19T12:02:37;3.50;;;1.75;;
58366;SDS011;57745;42.524;12.052;2022-08-19T12:05:03;4.25;;;2.17;;
58366;SDS011;57745;42.524;12.052;2022-08-19T12:07:29;4.38;;;2.30;;
58366;SDS011;57745;42.524;12.052;2022-08-19T12:09:58;4.47;;;2.10;;
58366;SDS011;57745;42.524;12.052;2022-08-19T12:12:24;3.53;;;2.13;;
58366;SDS011;57745;42.524;12.052;2022-08-19T12:14:51;3.65;;;2.22;;
58366;SDS011;57745;42.524;12.052;2022-08-19T12:17:30;4.43;;;1.92;;
58366;SDS011;57745;42.524;12.052;2022-08-19T12:19:56;4.00;;;2.17;;
58366;SDS011;57745;42.524;12.052;2022-08-19T12:22:21;5.15;;;2.20;;
58366;SDS011;57745;42.524;12.052;2022-08-19T12:24:47;3.70;;;2.17;;
58366;SDS011;57745;42.524;12.052;2022-08-19T12:27:15;3.33;;;1.80;;
58366;SDS011;57745;42.524;12.052;2022-08-19T12:29:41;3.67;;;2.03;;
58366;SDS011;57745;42.524;12.052;2022-08-19T12:32:06;2.78;;;1.70;;
58366;SDS011;57745;42.524;12.052;2022-08-19T12:34:33;3.42;;;1.85;;
58366;SDS011;57745;42.524;12.052;2022-08-19T12:37:01;4.53;;;2.20;;
58366;SDS011;57745;42.524;12.052;2022-08-19T12:39:28;4.15;;;1.80;;
58366;SDS011;57745;42.524;12.052;2022-08-19T12:41:55;5.32;;;2.33;;
58366;SDS011;57745;42.524;12.052;2022-08-19T12:44:21;3.45;;;1.70;;
58366;SDS011;57745;42.524;12.052;2022-08-19T12:46:48;3.60;;;1.80;;
58366;SDS011;57745;42.524;12.052;2022-08-19T12:49:14;3.28;;;1.50;;
58366;SDS011;57745;42.524;12.052;2022-08-19T12:51:40;3.55;;;1.60;;
58366;SDS011;57745;42.524;12.052;2022-08-19T12:54:07;4.03;;;1.70;;
58366;SDS011;57745;42.524;12.052;2022-08-19T12:56:33;3.08;;;1.90;;
58366;SDS011;57745;42.524;12.052;2022-08-19T12:59:02;3.90;;;1.77;;
58366;SDS011;57745;42.524;12.052;2022-08-19T13:01:29;2.97;;;1.65;;
58366;SDS011;57745;42.524;12.052;2022-08-19T13:03:57;3.03;;;1.50;;
58366;SDS011;57745;42.524;12.052;2022-08-19T13:06:24;3.45;;;1.83;;
58366;SDS011;57745;42.524;12.052;2022-08-19T13:08:51;2.22;;;1.35;;
58366;SDS011;57745;42.524;12.052;2022-08-19T13:11:17;4.50;;;1.92;;
58366;SDS011;57745;42.524;12.052;2022-08-19T13:13:46;4.32;;;1.50;;
58366;SDS011;57745;42.524;12.052;2022-08-19T13:16:13;3.30;;;2.10;;
58366;SDS011;57745;42.524;12.052;2022-08-19T13:18:39;2.92;;;1.40;;
58366;SDS011;57745;42.524;12.052;2022-08-19T13:21:08;4.85;;;2.00;;
58366;SDS011;57745;42.524;12.052;2022-08-19T13:23:36;5.00;;;2.03;;
58366;SDS011;57745;42.524;12.052;2022-08-19T13:26:03;3.33;;;1.60;;
58366;SDS011;57745;42.524;12.052;2022-08-19T13:28:30;4.50;;;1.73;;
58366;SDS011;57745;42.524;12.052;2022-08-19T13:31:20;4.95;;;1.90;;
58366;SDS011;57745;42.524;12.052;2022-08-19T13:34:06;3.15;;;1.45;;
58366;SDS011;57745;42.524;12.052;2022-08-19T13:36:32;3.95;;;1.52;;
58366;SDS011;57745;42.524;12.052;2022-08-19T13:38:58;2.65;;;1.30;;
58366;SDS011;57745;42.524;12.052;2022-08-19T13:41:24;4.03;;;1.85;;
58366;SDS011;57745;42.524;12.052;2022-08-19T13:43:51;2.97;;;1.52;;
58366;SDS011;57745;42.524;12.052;2022-08-19T13:46:17;4.22;;;1.80;;
58366;SDS011;57745;42.524;12.052;2022-08-19T13:48:44;3.03;;;1.60;;
58366;SDS011;57745;42.524;12.052;2022-08-19T13:51:13;3.55;;;1.50;;
58366;SDS011;57745;42.524;12.052;2022-08-19T13:53:40;3.33;;;1.63;;
58366;SDS011;57745;42.524;12.052;2022-08-19T13:56:08;2.53;;;1.80;;
58366;SDS011;57745;42.524;12.052;2022-08-19T13:58:36;2.10;;;1.55;;
58366;SDS011;57745;42.524;12.052;2022-08-19T14:01:03;3.25;;;1.50;;
58366;SDS011;57745;42.524;12.052;2022-08-19T14:03:30;3.20;;;1.50;;
58366;SDS011;57745;42.524;12.052;2022-08-19T14:05:56;1.50;;;1.15;;
58366;SDS011;57745;42.524;12.052;2022-08-19T14:08:21;3.20;;;1.52;;
58366;SDS011;57745;42.524;12.052;2022-08-19T14:10:47;3.47;;;1.35;;
58366;SDS011;57745;42.524;12.052;2022-08-19T14:13:17;3.75;;;1.50;;
58366;SDS011;57745;42.524;12.052;2022-08-19T14:15:45;2.67;;;1.42;;
58366;SDS011;57745;42.524;12.052;2022-08-19T14:18:12;2.72;;;1.42;;
58366;SDS011;57745;42.524;12.052;2022-08-19T14:20:38;2.17;;;1.65;;
58366;SDS011;57745;42.524;12.052;2022-08-19T14:23:04;3.28;;;1.70;;
58366;SDS011;57745;42.524;12.052;2022-08-19T14:25:32;2.58;;;1.73;;
58366;SDS011;57745;42.524;12.052;2022-08-19T14:27:59;4.25;;;2.10;;
58366;SDS011;57745;42.524;12.052;2022-08-19T14:30:27;2.55;;;1.63;;
58366;SDS011;57745;42.524;12.052;2022-08-19T14:32:55;3.95;;;2.00;;
58366;SDS011;57745;42.524;12.052;2022-08-19T14:35:23;3.63;;;2.05;;
58366;SDS011;57745;42.524;12.052;2022-08-19T14:37:49;3.65;;;2.05;;
58366;SDS011;57745;42.524;12.052;2022-08-19T14:40:19;3.78;;;2.08;;
58366;SDS011;57745;42.524;12.052;2022-08-19T14:42:51;3.47;;;1.93;;
58366;SDS011;57745;42.524;12.052;2022-08-19T14:45:24;3.13;;;1.80;;
58366;SDS011;57745;42.524;12.052;2022-08-19T14:47:51;3.78;;;2.47;;
58366;SDS011;57745;42.524;12.052;2022-08-19T14:50:17;3.33;;;1.70;;
58366;SDS011;57745;42.524;12.052;2022-08-19T14:52:47;4.28;;;1.88;;
58366;SDS011;57745;42.524;12.052;2022-08-19T14:55:17;4.43;;;1.70;;
58366;SDS011;57745;42.524;12.052;2022-08-19T14:57:43;4.10;;;1.92;;